createdAt,value
2022-07-26T04:00:57.118Z,45.71
2022-07-26T04:03:25.644Z,45.58
2022-07-26T04:05:55.211Z,45.61
2022-07-26T04:08:25.124Z,45.74
2022-07-26T04:10:54.152Z,45.73
2022-07-26T04:13:24.775Z,45.73
2022-07-26T04:15:53.652Z,45.64
2022-07-26T04:18:24.177Z,45.59
2022-07-26T04:20:54.138Z,45.53
2022-07-26T04:23:23.299Z,45.48
2022-07-26T04:25:52.476Z,45.35
2022-07-26T04:28:21.560Z,45.42
2022-07-26T04:30:50.690Z,45.36
2022-07-26T04:33:19.973Z,45.27
2022-07-26T04:35:49.165Z,45.26
2022-07-26T04:38:18.369Z,45.10
2022-07-26T04:40:47.485Z,45.02
2022-07-26T04:43:20.607Z,44.88
2022-07-26T04:45:50.572Z,44.53
2022-07-26T04:48:20.106Z,44.57
2022-07-26T04:50:49.369Z,44.59
2022-07-26T04:53:18.408Z,44.04
2022-07-26T04:55:48.495Z,43.63
2022-07-26T04:58:19.124Z,43.41
2022-07-26T05:01:09.412Z,42.77
2022-07-26T05:03:39.798Z,42.49
2022-07-26T05:06:08.797Z,42.01
2022-07-26T05:08:38.168Z,41.85
2022-07-26T05:11:07.821Z,41.50
2022-07-26T05:13:37.371Z,41.49
2022-07-26T05:16:11.672Z,41.18
2022-07-26T05:18:45.758Z,40.93
2022-07-26T05:21:19.324Z,40.87
2022-07-26T05:23:50.646Z,40.67
2022-07-26T05:26:19.079Z,40.30
2022-07-26T05:28:47.524Z,39.74
2022-07-26T05:31:17.278Z,39.40
2022-07-26T05:33:46.027Z,38.91
2022-07-26T05:36:14.763Z,38.53
2022-07-26T05:38:43.506Z,38.17
2022-07-26T05:41:12.852Z,38.02
2022-07-26T05:43:42.325Z,37.91
2022-07-26T05:46:12.848Z,38.31
2022-07-26T05:48:43.531Z,37.82
2022-07-26T05:51:13.213Z,37.33
2022-07-26T05:53:42.388Z,37.27
2022-07-26T05:56:11.694Z,37.33
2022-07-26T05:58:40.899Z,37.32
2022-07-26T06:01:10.386Z,37.35
2022-07-26T06:03:39.195Z,37.21
2022-07-26T06:06:08.405Z,37.14
2022-07-26T06:08:37.794Z,37.29
2022-07-26T06:11:06.747Z,37.16
2022-07-26T06:13:35.772Z,37.48
2022-07-26T06:16:05.645Z,37.26
2022-07-26T06:18:34.366Z,37.14
2022-07-26T06:21:02.845Z,37.20
2022-07-26T06:23:34.694Z,37.30
2022-07-26T06:26:05.006Z,37.42
2022-07-26T06:28:34.546Z,37.48
2022-07-26T06:31:03.139Z,37.44
2022-07-26T06:33:31.869Z,37.39
2022-07-26T06:36:00.979Z,37.40
2022-07-26T06:38:29.494Z,37.47
2022-07-26T06:40:58.931Z,37.36
2022-07-26T06:43:28.057Z,37.29
2022-07-26T06:45:57.206Z,37.32
2022-07-26T06:48:25.802Z,37.54
2022-07-26T06:50:54.378Z,37.69
2022-07-26T06:53:23.539Z,37.74
2022-07-26T06:55:52.315Z,37.62
2022-07-26T06:58:20.759Z,37.70
2022-07-26T07:00:50.042Z,37.71
2022-07-26T07:03:19.562Z,37.73
2022-07-26T07:05:50.002Z,37.81
2022-07-26T07:08:21.753Z,37.86
2022-07-26T07:10:54.216Z,37.86
2022-07-26T07:13:26.002Z,38.05
2022-07-26T07:15:55.365Z,38.13
2022-07-26T07:18:24.087Z,37.99
2022-07-26T07:20:53.149Z,37.89
2022-07-26T07:23:23.682Z,37.92
2022-07-26T07:25:52.727Z,38.11
2022-07-26T07:28:22.217Z,38.07
2022-07-26T07:30:52.819Z,38.00
2022-07-26T07:33:23.115Z,38.08
2022-07-26T07:35:54.546Z,38.38
2022-07-26T07:38:22.919Z,38.36
2022-07-26T07:40:52.791Z,38.45
2022-07-26T07:43:23.543Z,38.39
2022-07-26T07:45:52.139Z,38.54
2022-07-26T07:48:20.859Z,38.63
2022-07-26T07:50:50.153Z,38.58
2022-07-26T07:53:18.575Z,38.74
2022-07-26T07:55:49.360Z,38.62
2022-07-26T07:58:20.519Z,38.81
2022-07-26T08:00:49.938Z,38.86
2022-07-26T08:03:24.342Z,39.00
2022-07-26T08:06:10.934Z,39.22
2022-07-26T08:08:40.302Z,39.46
2022-07-26T08:11:09.476Z,39.46
2022-07-26T08:13:47.284Z,39.55
2022-07-26T08:16:17.468Z,39.74
2022-07-26T08:18:57.787Z,39.66
2022-07-26T08:21:37.683Z,39.99
2022-07-26T08:24:06.650Z,39.99
2022-07-26T08:26:35.064Z,40.19
2022-07-26T08:29:04.068Z,40.31
2022-07-26T08:31:32.721Z,40.35
2022-07-26T08:34:01.638Z,40.47
2022-07-26T08:36:32.555Z,40.54
2022-07-26T08:39:02.054Z,40.58
2022-07-26T08:41:31.965Z,40.83
2022-07-26T08:44:09.127Z,40.95
2022-07-26T08:46:41.829Z,40.90
2022-07-26T08:49:13.528Z,41.10
2022-07-26T08:51:45.303Z,41.15
2022-07-26T08:54:16.247Z,41.32
2022-07-26T08:56:53.059Z,41.29
2022-07-26T08:59:23.436Z,41.45
2022-07-26T09:01:57.208Z,41.33
2022-07-26T09:04:32.154Z,41.65
2022-07-26T09:07:22.293Z,41.63
2022-07-26T09:10:01.045Z,41.56
2022-07-26T09:12:32.572Z,42.00
2022-07-26T09:15:03.403Z,41.87
2022-07-26T09:17:44.282Z,41.86
2022-07-26T09:20:15.649Z,42.06
2022-07-26T09:23:03.299Z,42.29
2022-07-26T09:25:35.340Z,42.31
2022-07-26T09:28:21.264Z,42.54
2022-07-26T09:30:55.533Z,42.50
2022-07-26T09:33:24.867Z,42.73
2022-07-26T09:36:06.914Z,42.93
2022-07-26T09:38:46.071Z,42.73
2022-07-26T09:41:34.951Z,43.06
2022-07-26T09:44:07.349Z,43.14
2022-07-26T09:46:57.526Z,43.18
2022-07-26T09:49:40.252Z,43.41
2022-07-26T09:52:22.229Z,43.61
2022-07-26T09:54:51.939Z,43.64
2022-07-26T09:57:21.690Z,43.73
2022-07-26T09:59:51.813Z,43.83
2022-07-26T10:02:20.770Z,43.88
2022-07-26T10:04:49.210Z,44.03
2022-07-26T10:07:18.769Z,44.05
2022-07-26T10:10:09.446Z,44.03
2022-07-26T10:12:38.149Z,44.18
2022-07-26T10:15:33.768Z,44.32
2022-07-26T10:18:03.652Z,44.45
2022-07-26T10:20:44.504Z,44.63
2022-07-26T10:23:33.486Z,44.76
2022-07-26T10:26:03.729Z,44.90
2022-07-26T10:28:34.849Z,45.07
2022-07-26T10:31:32.822Z,45.22
2022-07-26T10:34:07.100Z,45.40
2022-07-26T10:36:40.608Z,45.53
2022-07-26T10:39:24.368Z,45.59
2022-07-26T10:42:00.933Z,45.52
2022-07-26T10:44:31.969Z,45.68
2022-07-26T10:47:11.750Z,45.90
2022-07-26T10:49:43.887Z,45.52
2022-07-26T10:52:19.584Z,45.57
2022-07-26T10:54:57.445Z,45.45
2022-07-26T10:57:28.020Z,45.42
2022-07-26T10:59:59.292Z,45.36
2022-07-26T11:02:33.441Z,45.11
2022-07-26T11:05:16.599Z,45.27
2022-07-26T11:08:05.729Z,45.07
2022-07-26T11:10:41.365Z,45.31
2022-07-26T11:13:15.053Z,45.41
2022-07-26T11:15:54.909Z,45.16
2022-07-26T11:18:28.899Z,44.97
2022-07-26T11:21:09.253Z,44.87
2022-07-26T11:23:40.368Z,44.80
2022-07-26T11:26:21.190Z,44.64
2022-07-26T11:29:01.356Z,44.58
2022-07-26T11:31:50.582Z,44.74
2022-07-26T11:34:34.241Z,44.81
2022-07-26T11:37:05.358Z,44.81
2022-07-26T11:39:36.804Z,44.75
2022-07-26T11:42:16.939Z,44.48
2022-07-26T11:44:47.684Z,44.62
2022-07-26T11:47:25.536Z,44.66
2022-07-26T11:52:44.616Z,44.84
2022-07-26T11:55:14.044Z,44.91
2022-07-26T11:57:42.957Z,45.01
2022-07-26T12:00:13.993Z,45.27
2022-07-26T12:02:44.302Z,45.15
2022-07-26T12:05:20.004Z,45.32
2022-07-26T12:07:59.424Z,45.48
2022-07-26T12:10:30.505Z,45.30
2022-07-26T12:13:14.047Z,45.37
2022-07-26T12:15:47.868Z,45.36
2022-07-26T12:18:27.934Z,45.48
2022-07-26T12:21:04.963Z,45.53
2022-07-26T12:23:50.120Z,45.57
2022-07-26T12:26:25.345Z,45.65
2022-07-26T12:28:56.864Z,45.57
2022-07-26T12:31:33.318Z,45.89
2022-07-26T12:34:02.456Z,45.80
2022-07-26T12:36:36.315Z,45.82
2022-07-26T12:39:06.662Z,45.85
2022-07-26T12:41:38.458Z,46.01
2022-07-26T12:44:12.829Z,45.96
2022-07-26T12:46:45.450Z,45.94
2022-07-26T12:49:15.705Z,45.93
2022-07-26T12:51:45.362Z,45.79
2022-07-26T12:54:15.079Z,46.01
2022-07-26T12:56:46.554Z,45.92
2022-07-26T12:59:17.668Z,46.21
2022-07-26T13:01:50.294Z,46.10
2022-07-26T13:04:20.495Z,46.15
2022-07-26T13:06:54.689Z,46.16
2022-07-26T13:09:28.160Z,46.14
2022-07-26T13:12:00.009Z,46.24
2022-07-26T13:14:28.967Z,46.17
2022-07-26T13:16:58.887Z,46.34
2022-07-26T13:19:30.082Z,46.46
2022-07-26T13:22:00.803Z,46.33
2022-07-26T13:24:31.396Z,46.39
2022-07-26T13:27:03.132Z,46.57
2022-07-26T13:29:34.700Z,46.48
2022-07-26T13:32:05.339Z,46.64
2022-07-26T13:34:35.456Z,46.58
2022-07-26T13:37:08.577Z,46.60
2022-07-26T13:39:38.201Z,46.74
2022-07-26T13:42:09.333Z,46.79
2022-07-26T13:44:41.655Z,46.87
2022-07-26T13:47:10.400Z,46.80
2022-07-26T13:49:40.786Z,46.67
2022-07-26T13:52:15.828Z,46.72
2022-07-26T13:54:45.876Z,46.73
2022-07-26T13:57:15.068Z,46.74
2022-07-26T13:59:44.613Z,46.76
2022-07-26T14:02:14.134Z,46.84
2022-07-26T14:04:43.161Z,46.76
2022-07-26T14:07:12.407Z,46.80
2022-07-26T14:09:41.102Z,46.92
2022-07-26T14:12:13.736Z,46.85
2022-07-26T14:14:42.298Z,46.77
2022-07-26T14:17:10.837Z,46.84
2022-07-26T14:19:40.253Z,46.74
2022-07-26T14:22:09.818Z,46.57
2022-07-26T14:24:38.341Z,46.74
2022-07-26T14:27:08.766Z,46.65
2022-07-26T14:29:37.732Z,46.81
2022-07-26T14:32:07.598Z,46.84
2022-07-26T14:34:37.281Z,46.80
2022-07-26T14:37:09.952Z,46.83
2022-07-26T14:39:55.228Z,46.74
2022-07-26T14:42:28.260Z,46.61
2022-07-26T14:44:57.658Z,46.69
2022-07-26T14:47:26.780Z,46.61
2022-07-26T14:49:56.150Z,46.80
2022-07-26T14:52:25.404Z,46.85
2022-07-26T14:54:54.713Z,46.86
2022-07-26T14:57:23.101Z,46.56
2022-07-26T14:59:52.535Z,46.57
2022-07-26T15:02:21.425Z,46.40
2022-07-26T15:04:50.032Z,46.40
2022-07-26T15:07:18.966Z,46.41
2022-07-26T15:09:48.428Z,46.57
2022-07-26T15:12:17.712Z,46.49
2022-07-26T15:14:46.485Z,46.46
2022-07-26T15:17:15.122Z,46.53
2022-07-26T15:19:43.589Z,46.32
2022-07-26T15:22:12.381Z,46.37
2022-07-26T15:24:40.958Z,46.28
2022-07-26T15:27:10.239Z,46.28
2022-07-26T15:29:46.955Z,46.20
2022-07-26T15:32:16.082Z,46.35
2022-07-26T15:34:47.683Z,46.14
2022-07-26T15:37:17.295Z,46.07
2022-07-26T15:39:46.530Z,46.06
2022-07-26T15:42:16.162Z,46.15
2022-07-26T15:44:47.126Z,46.10
2022-07-26T15:47:53.278Z,46.16
2022-07-26T15:50:12.536Z,45.97
2022-07-26T15:52:49.588Z,46.01
2022-07-26T15:55:20.283Z,45.94
2022-07-26T15:57:49.714Z,45.84
2022-07-26T16:00:19.386Z,45.79
2022-07-26T16:02:49.108Z,45.80
2022-07-26T16:05:18.442Z,45.90
2022-07-26T16:07:48.459Z,45.61
2022-07-26T16:10:18.018Z,45.78
2022-07-26T16:12:47.235Z,45.73
2022-07-26T16:15:16.642Z,45.81
2022-07-26T16:17:46.038Z,45.63
2022-07-26T16:20:16.789Z,45.60
2022-07-26T16:22:50.296Z,45.58
2022-07-26T16:25:19.795Z,45.56
2022-07-26T16:27:50.057Z,45.66
2022-07-26T16:30:20.029Z,45.46
2022-07-26T16:32:49.237Z,45.61
2022-07-26T16:35:18.618Z,45.39
2022-07-26T16:37:50.051Z,45.30
2022-07-26T16:40:19.369Z,45.23
2022-07-26T16:42:48.652Z,45.30
2022-07-26T16:45:18.159Z,45.36
2022-07-26T16:47:47.729Z,45.26
2022-07-26T16:50:27.321Z,45.33
2022-07-26T16:52:59.016Z,45.43
2022-07-26T16:55:28.805Z,45.19
2022-07-26T16:57:58.080Z,45.24
2022-07-26T17:00:27.894Z,45.20
2022-07-26T17:02:56.877Z,45.25
2022-07-26T17:05:26.411Z,45.10
2022-07-26T17:07:56.878Z,45.24
2022-07-26T17:10:28.763Z,45.17
2022-07-26T17:12:58.487Z,45.11
2022-07-26T17:15:27.643Z,45.11
2022-07-26T17:17:57.121Z,45.16
2022-07-26T17:20:30.328Z,45.24
2022-07-26T17:23:02.311Z,45.33
2022-07-26T17:25:31.389Z,45.23
2022-07-26T17:28:01.811Z,45.26
2022-07-26T17:30:31.287Z,45.28
2022-07-26T17:33:02.396Z,45.17
2022-07-26T17:35:32.218Z,45.19
2022-07-26T17:38:04.167Z,45.06
2022-07-26T17:40:34.635Z,45.15
2022-07-26T17:43:05.407Z,45.03
2022-07-26T17:45:35.004Z,45.33
2022-07-26T17:48:06.543Z,45.15
2022-07-26T17:50:37.377Z,45.11
2022-07-26T17:53:07.528Z,45.17
2022-07-26T17:55:37.349Z,45.28
2022-07-26T17:58:06.655Z,45.12
2022-07-26T18:00:35.409Z,45.16
2022-07-26T18:03:08.867Z,45.15
2022-07-26T18:05:41.399Z,45.10
2022-07-26T18:08:11.391Z,45.30
2022-07-26T18:10:50.600Z,45.04
2022-07-26T18:13:21.666Z,45.27
2022-07-26T18:15:51.692Z,45.37
2022-07-26T18:18:20.958Z,45.45
2022-07-26T18:20:50.496Z,45.69
2022-07-26T18:23:19.413Z,45.89
2022-07-26T18:25:48.989Z,46.21
2022-07-26T18:28:18.152Z,46.42
2022-07-26T18:30:47.112Z,46.61
2022-07-26T18:33:18.878Z,46.76
2022-07-26T18:35:48.111Z,46.75
2022-07-26T18:38:17.155Z,46.79
2022-07-26T18:40:45.819Z,46.96
2022-07-26T18:43:14.330Z,47.00
2022-07-26T18:45:43.387Z,47.33
2022-07-26T18:48:12.292Z,47.54
2022-07-26T18:50:44.439Z,47.73
2022-07-26T18:53:13.571Z,47.90
2022-07-26T18:55:42.872Z,48.09
2022-07-26T18:58:12.075Z,48.13
2022-07-26T19:00:41.516Z,48.43
2022-07-26T19:03:11.871Z,48.75
2022-07-26T19:05:42.782Z,48.87
2022-07-26T19:08:11.176Z,48.81
2022-07-26T19:10:39.688Z,48.97
2022-07-26T19:13:08.153Z,49.08
2022-07-26T19:15:36.681Z,49.09
2022-07-26T19:18:16.280Z,49.10
2022-07-26T19:20:44.936Z,49.33
2022-07-26T19:23:17.174Z,49.47
2022-07-26T19:25:48.300Z,49.67
2022-07-26T19:28:17.302Z,49.73
2022-07-26T19:30:47.634Z,49.84
2022-07-26T19:33:19.667Z,49.93
2022-07-26T19:35:49.211Z,49.96
2022-07-26T19:38:18.938Z,50.21
2022-07-26T19:40:48.759Z,50.41
2022-07-26T19:43:18.527Z,50.40
2022-07-26T19:45:49.793Z,50.54
2022-07-26T19:48:21.299Z,50.53
2022-07-26T19:50:52.732Z,50.61
2022-07-26T19:53:22.331Z,50.35
2022-07-26T19:55:51.576Z,50.19
2022-07-26T19:58:20.415Z,50.17
2022-07-26T20:00:56.253Z,50.25
2022-07-26T20:03:25.259Z,50.17
2022-07-26T20:05:58.873Z,50.34
2022-07-26T20:08:28.892Z,50.36
2022-07-26T20:10:58.958Z,50.40
2022-07-26T20:13:27.463Z,50.46
2022-07-26T20:15:55.987Z,50.61
2022-07-26T20:18:28.493Z,50.70
2022-07-26T20:20:59.215Z,50.66
2022-07-26T20:23:29.115Z,50.76
2022-07-26T20:25:57.729Z,50.78
2022-07-26T20:28:27.462Z,50.81
2022-07-26T20:30:56.414Z,50.95
2022-07-26T20:33:25.795Z,51.06
2022-07-26T20:35:55.502Z,51.08
2022-07-26T20:38:25.290Z,50.94
2022-07-26T20:40:53.949Z,51.11
2022-07-26T20:43:22.734Z,51.16
2022-07-26T20:45:51.774Z,51.27
2022-07-26T20:48:21.129Z,51.31
2022-07-26T20:50:50.386Z,51.33
2022-07-26T20:53:19.177Z,51.37
2022-07-26T20:55:47.841Z,51.30
2022-07-26T20:58:17.984Z,51.36
